createdAt,value
2022-12-11T00:01:10.405Z,-0.20
2022-12-11T00:03:39.132Z,-0.30
2022-12-11T00:06:08.683Z,-0.30
2022-12-11T00:08:37.252Z,-0.30
2022-12-11T00:11:09.021Z,-0.30
2022-12-11T00:13:36.999Z,-0.40
2022-12-11T00:16:05.419Z,-0.40
2022-12-11T00:18:33.471Z,-0.30
2022-12-11T00:21:02.215Z,-0.40
2022-12-11T00:23:30.495Z,-0.40
2022-12-11T00:25:58.765Z,-0.40
2022-12-11T00:28:28.229Z,-0.30
2022-12-11T00:30:56.461Z,-0.40
2022-12-11T00:33:24.362Z,-0.40
2022-12-11T00:35:52.486Z,-0.40
2022-12-11T00:38:22.475Z,-0.50
2022-12-11T00:40:50.486Z,-0.40
2022-12-11T00:43:18.749Z,-0.50
2022-12-11T00:45:48.946Z,-0.40
2022-12-11T00:48:16.960Z,-0.40
2022-12-11T00:50:44.917Z,-0.50
2022-12-11T00:53:12.854Z,-0.50
2022-12-11T00:55:42.992Z,-0.40
2022-12-11T00:58:11.531Z,-0.40
2022-12-11T01:00:40.404Z,-0.40
2022-12-11T01:03:09.705Z,-0.40
2022-12-11T01:05:38.321Z,-0.40
2022-12-11T01:08:06.556Z,-0.40
2022-12-11T01:10:33.841Z,-0.40
2022-12-11T01:13:04.449Z,-0.40
2022-12-11T01:15:38.660Z,-0.50
2022-12-11T01:18:11.658Z,-0.40
2022-12-11T01:20:40.840Z,-0.40
2022-12-11T01:23:08.811Z,-0.50
2022-12-11T01:25:39.063Z,-0.40
2022-12-11T01:28:07.377Z,-0.40
2022-12-11T01:30:35.799Z,-0.50
2022-12-11T01:33:04.092Z,-0.50
2022-12-11T01:35:34.484Z,-0.40
2022-12-11T01:38:02.878Z,-0.50
2022-12-11T01:40:31.158Z,-0.60
2022-12-11T01:42:59.094Z,-0.50
2022-12-11T01:45:41.140Z,-0.50
2022-12-11T01:48:12.127Z,-0.50
2022-12-11T01:50:46.333Z,-0.50
2022-12-11T01:53:18.905Z,-0.50
2022-12-11T01:55:48.011Z,-0.50
2022-12-11T01:58:17.184Z,-0.60
2022-12-11T02:00:45.101Z,-0.60
2022-12-11T02:03:13.471Z,-0.60
2022-12-11T02:05:42.938Z,-0.60
2022-12-11T02:08:11.548Z,-0.50
2022-12-11T02:10:49.943Z,-0.50
2022-12-11T02:13:24.484Z,-0.60
2022-12-11T02:16:01.625Z,-0.60
2022-12-11T02:18:35.772Z,-0.50
2022-12-11T02:21:11.859Z,-0.60
2022-12-11T02:23:59.033Z,-0.60
2022-12-11T02:26:49.384Z,-0.60
2022-12-11T02:29:23.841Z,-0.50
2022-12-11T02:31:57.609Z,-0.60
2022-12-11T02:34:31.527Z,-0.60
2022-12-11T02:37:03.095Z,-0.60
2022-12-11T02:39:33.181Z,-0.60
2022-12-11T02:42:02.440Z,-0.50
2022-12-11T02:44:35.297Z,-0.60
2022-12-11T02:47:05.733Z,-0.60
2022-12-11T02:49:34.746Z,-0.60
2022-12-11T02:52:05.370Z,-0.70
2022-12-11T02:54:37.769Z,-0.60
2022-12-11T02:57:10.571Z,-0.60
2022-12-11T02:59:42.542Z,-0.70
2022-12-11T03:02:11.854Z,-0.70
2022-12-11T03:04:40.517Z,-0.70
2022-12-11T03:07:12.999Z,-0.70
2022-12-11T03:09:41.200Z,-0.80
2022-12-11T03:12:10.984Z,-0.80
2022-12-11T03:14:41.665Z,-0.80
2022-12-11T03:17:15.174Z,-0.90
2022-12-11T03:19:48.652Z,-0.90
2022-12-11T03:22:20.559Z,-0.90
2022-12-11T03:24:52.665Z,-0.90
2022-12-11T03:27:29.027Z,-0.90
2022-12-11T03:30:03.391Z,-1.00
2022-12-11T03:32:34.603Z,-1.00
2022-12-11T03:35:08.451Z,-1.00
2022-12-11T03:37:39.155Z,-1.00
2022-12-11T03:40:11.869Z,-1.00
2022-12-11T03:42:41.327Z,-1.00
2022-12-11T03:45:12.861Z,-1.00
2022-12-11T03:47:43.260Z,-1.00
2022-12-11T03:50:13.920Z,-1.00
2022-12-11T03:52:45.978Z,-1.00
2022-12-11T03:55:15.955Z,-1.00
2022-12-11T03:57:44.365Z,-1.00
2022-12-11T04:00:17.016Z,-1.00
2022-12-11T04:03:11.371Z,-1.00
2022-12-11T04:05:42.089Z,-1.00
2022-12-11T04:08:10.205Z,-1.00
2022-12-11T04:10:38.487Z,-1.00
2022-12-11T04:13:06.513Z,-1.00
2022-12-11T04:15:35.433Z,-1.00
2022-12-11T04:18:20.858Z,-1.10
2022-12-11T04:21:06.338Z,-1.10
2022-12-11T04:23:50.846Z,-1.10
2022-12-11T04:26:21.041Z,-1.20
2022-12-11T04:28:50.532Z,-1.20
2022-12-11T04:31:22.075Z,-1.20
2022-12-11T04:33:50.611Z,-1.20
2022-12-11T04:36:19.056Z,-1.20
2022-12-11T04:38:47.063Z,-1.30
2022-12-11T04:41:16.690Z,-1.30
2022-12-11T04:43:45.328Z,-1.30
2022-12-11T04:46:15.676Z,-1.30
2022-12-11T04:48:45.553Z,-1.30
2022-12-11T04:51:14.232Z,-1.30
2022-12-11T04:53:42.921Z,-1.30
2022-12-11T04:56:13.380Z,-1.40
2022-12-11T04:58:44.415Z,-1.30
2022-12-11T05:01:14.220Z,-1.30
2022-12-11T05:03:44.638Z,-1.30
2022-12-11T05:06:13.222Z,-1.40
2022-12-11T05:08:42.951Z,-1.40
2022-12-11T05:11:12.535Z,-1.40
2022-12-11T05:13:40.960Z,-1.50
2022-12-11T05:16:11.342Z,-1.40
2022-12-11T05:18:39.368Z,-1.40
2022-12-11T05:21:10.661Z,-1.40
2022-12-11T05:23:39.076Z,-1.40
2022-12-11T05:26:11.852Z,-1.40
2022-12-11T05:28:41.067Z,-1.30
2022-12-11T05:31:12.838Z,-1.40
2022-12-11T05:33:41.571Z,-1.40
2022-12-11T05:36:17.182Z,-1.30
2022-12-11T05:38:45.194Z,-1.40
2022-12-11T05:41:15.087Z,-1.40
2022-12-11T05:43:43.116Z,-1.50
2022-12-11T05:46:14.426Z,-1.50
2022-12-11T05:48:43.997Z,-1.50
2022-12-11T05:51:14.090Z,-1.50
2022-12-11T05:53:42.769Z,-1.50
2022-12-11T05:56:13.823Z,-1.60
2022-12-11T05:58:42.692Z,-1.70
2022-12-11T06:01:13.068Z,-1.60
2022-12-11T06:03:41.089Z,-1.70
2022-12-11T06:06:09.275Z,-1.60
2022-12-11T06:08:38.906Z,-1.70
2022-12-11T06:11:07.680Z,-1.70
2022-12-11T06:13:36.178Z,-1.70
2022-12-11T06:16:05.602Z,-1.70
2022-12-11T06:18:36.323Z,-1.70
2022-12-11T06:21:12.665Z,-1.70
2022-12-11T06:23:42.477Z,-1.70
2022-12-11T06:26:11.122Z,-1.60
2022-12-11T06:28:39.446Z,-1.70
2022-12-11T06:31:07.793Z,-1.60
2022-12-11T06:33:36.301Z,-1.70
2022-12-11T06:36:05.087Z,-1.80
2022-12-11T06:38:33.142Z,-1.70
2022-12-11T06:41:04.757Z,-1.80
2022-12-11T06:43:32.766Z,-1.80
2022-12-11T06:46:04.105Z,-1.80
2022-12-11T06:48:33.039Z,-1.90
2022-12-11T06:51:01.525Z,-1.90
2022-12-11T06:53:29.448Z,-1.90
2022-12-11T06:55:57.327Z,-1.90
2022-12-11T06:58:26.602Z,-2.00
2022-12-11T07:00:54.849Z,-2.00
2022-12-11T07:03:23.043Z,-2.10
2022-12-11T07:05:51.136Z,-2.10
2022-12-11T07:08:19.078Z,-2.00
2022-12-11T07:10:47.233Z,-2.00
2022-12-11T07:13:15.412Z,-2.00
2022-12-11T07:15:44.828Z,-2.00
2022-12-11T07:18:13.141Z,-2.00
2022-12-11T07:20:41.263Z,-2.10
2022-12-11T07:23:09.159Z,-2.10
2022-12-11T07:25:38.209Z,-2.10
2022-12-11T07:28:06.365Z,-2.00
2022-12-11T07:30:34.311Z,-2.00
2022-12-11T07:33:03.704Z,-2.00
2022-12-11T07:35:31.742Z,-2.00
2022-12-11T07:37:59.720Z,-2.10
2022-12-11T07:40:28.523Z,-2.10
2022-12-11T07:42:56.591Z,-2.00
2022-12-11T07:45:26.373Z,-2.20
2022-12-11T07:47:54.691Z,-2.10
2022-12-11T07:50:24.259Z,-2.20
2022-12-11T07:52:52.350Z,-2.10
2022-12-11T07:55:20.327Z,-2.30
2022-12-11T07:57:48.395Z,-2.20
2022-12-11T08:00:17.286Z,-2.20
2022-12-11T08:02:45.512Z,-2.30
2022-12-11T08:05:13.767Z,-2.30
2022-12-11T08:07:43.382Z,-2.20
2022-12-11T08:10:11.550Z,-2.20
2022-12-11T08:12:39.512Z,-2.20
2022-12-11T08:15:09.067Z,-2.40
2022-12-11T08:17:40.152Z,-2.30
2022-12-11T08:20:09.528Z,-2.20
2022-12-11T08:22:37.445Z,-2.20
2022-12-11T08:25:08.447Z,-2.20
2022-12-11T08:27:36.585Z,-2.20
2022-12-11T08:30:06.033Z,-2.10
2022-12-11T08:32:35.060Z,-2.20
2022-12-11T08:35:03.169Z,-2.20
2022-12-11T08:37:31.518Z,-2.30
2022-12-11T08:39:59.832Z,-2.30
2022-12-11T08:42:29.465Z,-2.30
2022-12-11T08:44:57.948Z,-2.30
2022-12-11T08:47:25.977Z,-2.40
2022-12-11T08:49:54.461Z,-2.40
2022-12-11T08:52:23.356Z,-2.40
2022-12-11T08:54:51.408Z,-2.40
2022-12-11T08:57:19.410Z,-2.30
2022-12-11T08:59:48.755Z,-2.30
2022-12-11T09:02:16.903Z,-2.40
2022-12-11T09:04:44.967Z,-2.50
2022-12-11T09:07:13.356Z,-2.30
2022-12-11T09:09:41.335Z,-2.30
2022-12-11T09:12:09.777Z,-2.20
2022-12-11T09:14:37.825Z,-2.20
2022-12-11T09:17:07.062Z,-2.30
2022-12-11T09:19:35.235Z,-2.30
2022-12-11T09:22:03.575Z,-2.30
2022-12-11T09:24:32.007Z,-2.20
2022-12-11T09:27:00.074Z,-2.20
2022-12-11T09:29:27.995Z,-2.30
2022-12-11T09:31:55.982Z,-2.20
2022-12-11T09:34:29.205Z,-2.20
2022-12-11T09:36:58.000Z,-2.20
2022-12-11T09:39:26.122Z,-2.20
2022-12-11T09:42:00.045Z,-2.20
2022-12-11T09:44:36.458Z,-2.20
2022-12-11T09:47:04.829Z,-2.20
2022-12-11T09:49:40.357Z,-2.10
2022-12-11T09:52:19.182Z,-2.10
2022-12-11T09:54:52.096Z,-2.10
2022-12-11T09:57:31.754Z,-2.20
2022-12-11T10:00:11.332Z,-2.10
2022-12-11T10:02:52.471Z,-2.10
2022-12-11T10:05:29.284Z,-2.10
2022-12-11T10:08:04.106Z,-2.10
2022-12-11T10:10:42.122Z,-2.10
2022-12-11T10:13:22.947Z,-2.10
2022-12-11T10:15:55.523Z,-2.00
2022-12-11T10:18:25.742Z,-2.00
2022-12-11T10:20:56.703Z,-2.00
2022-12-11T10:23:35.512Z,-2.00
2022-12-11T10:26:07.399Z,-2.00
2022-12-11T10:28:36.018Z,-2.00
2022-12-11T10:31:12.357Z,-2.10
2022-12-11T10:33:49.650Z,-2.10
2022-12-11T10:36:26.277Z,-2.10
2022-12-11T10:38:54.912Z,-2.10
2022-12-11T10:41:25.773Z,-2.10
2022-12-11T10:43:54.972Z,-2.00
2022-12-11T10:46:26.296Z,-2.10
2022-12-11T10:48:56.751Z,-2.00
2022-12-11T10:51:34.267Z,-2.10
2022-12-11T10:54:07.628Z,-2.00
2022-12-11T10:56:38.517Z,-2.00
2022-12-11T10:59:06.911Z,-1.90
2022-12-11T11:01:35.078Z,-1.80
2022-12-11T11:04:07.754Z,-1.90
2022-12-11T11:06:37.933Z,-1.90
2022-12-11T11:09:06.059Z,-1.90
2022-12-11T11:11:36.783Z,-1.90
2022-12-11T11:14:13.610Z,-1.90
2022-12-11T11:16:43.990Z,-1.80
2022-12-11T11:19:20.915Z,-1.80
2022-12-11T11:21:53.542Z,-1.80
2022-12-11T11:24:30.393Z,-1.80
2022-12-11T11:27:14.739Z,-1.80
2022-12-11T11:29:45.783Z,-1.80
2022-12-11T11:32:21.143Z,-1.90
2022-12-11T11:34:50.748Z,-1.90
2022-12-11T11:37:33.007Z,-1.90
2022-12-11T11:40:09.305Z,-1.90
2022-12-11T11:42:44.724Z,-1.80
2022-12-11T11:45:18.171Z,-1.80
2022-12-11T11:47:58.116Z,-1.70
2022-12-11T11:50:29.135Z,-1.80
2022-12-11T11:53:05.940Z,-1.90
2022-12-11T11:55:43.694Z,-1.90
2022-12-11T11:58:17.795Z,-1.90
2022-12-11T12:00:46.208Z,-1.90
2022-12-11T12:03:17.234Z,-1.90
2022-12-11T12:05:53.109Z,-1.90
2022-12-11T12:08:35.536Z,-2.00
2022-12-11T12:11:08.644Z,-1.90
2022-12-11T12:13:49.433Z,-1.90
2022-12-11T12:16:52.071Z,-1.90
2022-12-11T12:19:27.661Z,-2.00
2022-12-11T12:21:56.299Z,-2.20
2022-12-11T12:24:35.776Z,-2.20
2022-12-11T12:27:43.643Z,-2.20
2022-12-11T12:30:06.966Z,-2.20
2022-12-11T12:32:47.006Z,-2.30
2022-12-11T12:35:27.205Z,-2.20
2022-12-11T12:37:59.772Z,-2.30
2022-12-11T12:40:33.724Z,-2.30
2022-12-11T12:43:31.801Z,-2.30
2022-12-11T12:46:11.871Z,-2.30
2022-12-11T12:48:40.691Z,-2.30
2022-12-11T12:51:14.072Z,-2.30
2022-12-11T12:53:45.383Z,-2.20
2022-12-11T12:56:15.948Z,-2.20
2022-12-11T12:58:46.494Z,-2.20
2022-12-11T13:01:19.284Z,-2.10
2022-12-11T13:03:54.510Z,-2.20
2022-12-11T13:06:35.795Z,-2.10
2022-12-11T13:09:18.311Z,-2.10
2022-12-11T13:11:50.089Z,-2.20
2022-12-11T13:14:30.184Z,-2.20
2022-12-11T13:17:26.275Z,-2.20
2022-12-11T13:20:13.868Z,-2.20
2022-12-11T13:23:08.982Z,-2.20
2022-12-11T13:25:52.319Z,-2.20
2022-12-11T13:28:25.764Z,-2.20
2022-12-11T13:31:35.940Z,-2.30
2022-12-11T13:34:17.845Z,-2.30
2022-12-11T13:36:51.187Z,-2.20
2022-12-11T13:39:22.277Z,-2.30
2022-12-11T13:41:55.191Z,-2.30
2022-12-11T13:44:27.591Z,-2.30
2022-12-11T13:46:59.108Z,-2.40
2022-12-11T13:49:31.717Z,-2.40
2022-12-11T13:52:01.485Z,-2.40
2022-12-11T13:54:31.096Z,-2.40
2022-12-11T13:57:03.399Z,-2.50
2022-12-11T13:59:35.941Z,-2.50
2022-12-11T14:02:16.347Z,-2.50
2022-12-11T14:04:45.250Z,-2.50
2022-12-11T14:07:13.483Z,-2.50
2022-12-11T14:09:45.363Z,-2.50
2022-12-11T14:12:22.737Z,-2.50
2022-12-11T14:14:54.464Z,-2.50
2022-12-11T14:17:26.985Z,-2.50
2022-12-11T14:19:58.109Z,-2.50
2022-12-11T14:22:28.856Z,-2.50
2022-12-11T14:24:59.137Z,-2.40
2022-12-11T14:27:28.674Z,-2.40
2022-12-11T14:29:58.197Z,-2.40
2022-12-11T14:32:32.343Z,-2.40
2022-12-11T14:35:03.111Z,-2.50
2022-12-11T14:37:31.444Z,-2.50
2022-12-11T14:40:01.789Z,-2.50
2022-12-11T14:42:33.462Z,-2.50
2022-12-11T14:45:08.500Z,-2.60
2022-12-11T14:47:41.567Z,-2.60
2022-12-11T14:50:18.088Z,-2.60
2022-12-11T14:52:49.085Z,-2.60
2022-12-11T14:55:21.136Z,-2.60
2022-12-11T14:57:55.257Z,-2.50
2022-12-11T15:00:27.779Z,-2.50
2022-12-11T15:03:00.915Z,-2.60
2022-12-11T15:05:29.380Z,-2.70
2022-12-11T15:08:00.446Z,-2.60
2022-12-11T15:10:35.603Z,-2.60
2022-12-11T15:13:05.636Z,-2.60
2022-12-11T15:15:45.890Z,-2.60
2022-12-11T15:18:21.573Z,-2.70
2022-12-11T15:20:52.800Z,-2.60
2022-12-11T15:23:20.915Z,-2.60
2022-12-11T15:25:52.699Z,-2.60
2022-12-11T15:28:33.212Z,-2.60
2022-12-11T15:31:05.273Z,-2.60
2022-12-11T15:33:48.508Z,-2.50
2022-12-11T15:36:27.741Z,-2.60
2022-12-11T15:38:55.795Z,-2.60
2022-12-11T15:41:25.181Z,-2.60
2022-12-11T15:43:58.568Z,-2.60
2022-12-11T15:46:44.866Z,-2.60
2022-12-11T15:49:13.651Z,-2.60
2022-12-11T15:51:43.436Z,-2.60
2022-12-11T15:54:11.781Z,-2.50
2022-12-11T15:56:40.276Z,-2.50
2022-12-11T15:59:08.643Z,-2.50
2022-12-11T16:01:38.189Z,-2.50
2022-12-11T16:04:06.376Z,-2.50
2022-12-11T16:06:35.052Z,-2.50
2022-12-11T16:09:04.996Z,-2.50
2022-12-11T16:11:33.064Z,-2.60
2022-12-11T16:14:04.186Z,-2.60
2022-12-11T16:16:32.505Z,-2.60
2022-12-11T16:19:02.019Z,-2.60
2022-12-11T16:21:30.310Z,-2.60
2022-12-11T16:23:58.470Z,-2.60
2022-12-11T16:26:27.703Z,-2.60
2022-12-11T16:28:55.807Z,-2.60
2022-12-11T16:31:23.824Z,-2.60
2022-12-11T16:33:51.992Z,-2.60
2022-12-11T16:36:21.857Z,-2.60
2022-12-11T16:38:53.955Z,-2.70
2022-12-11T16:41:23.723Z,-2.70
2022-12-11T16:43:52.139Z,-2.60
2022-12-11T16:46:20.652Z,-2.60
2022-12-11T16:48:49.094Z,-2.60
2022-12-11T16:51:18.327Z,-2.60
2022-12-11T16:53:47.747Z,-2.60
2022-12-11T16:56:15.700Z,-2.60
2022-12-11T16:58:43.765Z,-2.60
2022-12-11T17:01:13.757Z,-2.60
2022-12-11T17:03:43.053Z,-2.60
2022-12-11T17:06:13.573Z,-2.60
2022-12-11T17:08:42.671Z,-2.60
2022-12-11T17:11:13.859Z,-2.60
2022-12-11T17:13:42.138Z,-2.60
2022-12-11T17:16:12.300Z,-2.60
2022-12-11T17:18:41.513Z,-2.60
2022-12-11T17:21:12.110Z,-2.60
2022-12-11T17:23:40.991Z,-2.60
2022-12-11T17:26:12.267Z,-2.60
2022-12-11T17:28:40.955Z,-2.60
2022-12-11T17:31:11.001Z,-2.60
2022-12-11T17:33:39.297Z,-2.70
2022-12-11T17:36:08.819Z,-2.60
2022-12-11T17:38:37.087Z,-2.70
2022-12-11T17:41:07.273Z,-2.70
2022-12-11T17:43:36.932Z,-2.70
2022-12-11T17:46:06.245Z,-2.70
2022-12-11T17:48:34.980Z,-2.70
2022-12-11T17:51:07.066Z,-2.70
2022-12-11T17:53:35.832Z,-2.70
2022-12-11T17:56:06.146Z,-2.70
2022-12-11T17:58:34.692Z,-2.70
2022-12-11T18:01:09.006Z,-2.70
2022-12-11T18:03:38.107Z,-2.70
2022-12-11T18:06:08.400Z,-2.70
2022-12-11T18:08:36.508Z,-2.70
2022-12-11T18:11:08.317Z,-2.70
2022-12-11T18:13:37.260Z,-2.70
2022-12-11T18:16:09.589Z,-2.80
2022-12-11T18:18:37.685Z,-2.70
2022-12-11T18:21:06.265Z,-2.70
2022-12-11T18:23:34.568Z,-2.70
2022-12-11T18:26:03.133Z,-2.70
2022-12-11T18:28:32.386Z,-2.80
2022-12-11T18:31:01.731Z,-2.80
2022-12-11T18:33:32.206Z,-2.80
2022-12-11T18:36:00.216Z,-2.80
2022-12-11T18:38:28.228Z,-2.80
2022-12-11T18:40:56.304Z,-2.80
2022-12-11T18:43:24.438Z,-2.70
2022-12-11T18:45:52.412Z,-2.70
2022-12-11T18:48:20.754Z,-2.70
2022-12-11T18:50:51.428Z,-2.80
2022-12-11T18:53:20.594Z,-2.80
2022-12-11T18:55:52.589Z,-2.80
2022-12-11T18:58:24.158Z,-2.80
2022-12-11T19:00:52.610Z,-2.70
2022-12-11T19:03:20.686Z,-2.80
2022-12-11T19:05:50.166Z,-2.80
2022-12-11T19:08:18.437Z,-2.80
2022-12-11T19:10:48.082Z,-2.90
2022-12-11T19:13:16.547Z,-2.90
2022-12-11T19:15:45.612Z,-2.80
2022-12-11T19:18:15.021Z,-2.80
2022-12-11T19:20:57.778Z,-2.80
2022-12-11T19:23:32.768Z,-2.80
2022-12-11T19:26:00.829Z,-2.80
2022-12-11T19:28:28.851Z,-2.90
2022-12-11T19:30:56.935Z,-2.80
2022-12-11T19:33:24.974Z,-2.90
2022-12-11T19:36:02.069Z,-2.90
2022-12-11T19:38:30.228Z,-2.90
2022-12-11T19:40:59.664Z,-2.80
2022-12-11T19:43:27.765Z,-2.80
2022-12-11T19:45:55.915Z,-2.80
2022-12-11T19:48:23.907Z,-2.70
2022-12-11T19:50:52.102Z,-2.80
2022-12-11T19:53:21.457Z,-2.80
2022-12-11T19:55:51.889Z,-2.80
2022-12-11T19:58:21.493Z,-2.80
2022-12-11T20:00:49.751Z,-2.80
2022-12-11T20:03:18.140Z,-2.80
2022-12-11T20:05:46.527Z,-2.80
2022-12-11T20:08:42.963Z,-2.90
2022-12-11T20:11:06.499Z,-2.90
2022-12-11T20:13:38.686Z,-2.90
2022-12-11T20:16:07.700Z,-2.90
2022-12-11T20:18:36.548Z,-2.90
2022-12-11T20:21:07.417Z,-2.90
2022-12-11T20:23:36.842Z,-2.90
2022-12-11T20:26:08.679Z,-2.90
2022-12-11T20:28:38.420Z,-2.90
2022-12-11T20:31:07.425Z,-2.90
2022-12-11T20:33:35.692Z,-3.00
2022-12-11T20:36:07.904Z,-2.90
2022-12-11T20:38:36.139Z,-2.90
2022-12-11T20:41:04.533Z,-2.90
2022-12-11T20:43:34.415Z,-2.90
2022-12-11T20:46:05.785Z,-2.90
2022-12-11T20:48:34.357Z,-2.90
2022-12-11T20:51:02.838Z,-3.00
2022-12-11T20:53:31.695Z,-3.00
2022-12-11T20:55:59.828Z,-3.00
2022-12-11T20:58:28.067Z,-3.00
2022-12-11T21:00:57.338Z,-3.00
2022-12-11T21:03:27.473Z,-2.90
2022-12-11T21:05:55.692Z,-2.90
2022-12-11T21:08:23.686Z,-2.90
2022-12-11T21:10:51.775Z,-2.90
2022-12-11T21:13:20.293Z,-2.90
2022-12-11T21:15:51.679Z,-2.90
2022-12-11T21:18:20.294Z,-2.90
2022-12-11T21:20:49.796Z,-2.90
2022-12-11T21:23:17.787Z,-2.90
2022-12-11T21:25:45.836Z,-2.90
2022-12-11T21:28:14.021Z,-2.90
2022-12-11T21:30:42.088Z,-2.90
2022-12-11T21:33:10.040Z,-2.90
2022-12-11T21:35:37.982Z,-2.90
2022-12-11T21:38:07.298Z,-2.90
2022-12-11T21:40:35.479Z,-2.90
2022-12-11T21:43:03.529Z,-2.90
2022-12-11T21:46:00.310Z,-2.80
2022-12-11T21:48:23.588Z,-2.90
2022-12-11T21:50:51.640Z,-2.90
2022-12-11T21:53:21.103Z,-2.90
2022-12-11T21:55:49.151Z,-2.90
2022-12-11T21:58:17.058Z,-2.90
2022-12-11T22:00:46.905Z,-2.90
2022-12-11T22:03:14.972Z,-2.90
2022-12-11T22:05:42.950Z,-2.90
2022-12-11T22:08:10.971Z,-2.90
2022-12-11T22:10:40.415Z,-2.90
2022-12-11T22:13:08.423Z,-2.90
2022-12-11T22:15:36.491Z,-2.90
2022-12-11T22:18:04.577Z,-2.90
2022-12-11T22:20:32.571Z,-2.90
2022-12-11T22:23:00.676Z,-2.90
2022-12-11T22:25:28.837Z,-2.90
2022-12-11T22:27:58.184Z,-2.90
2022-12-11T22:30:26.189Z,-2.90
2022-12-11T22:32:54.215Z,-2.90
2022-12-11T22:35:26.994Z,-2.90
2022-12-11T22:37:55.367Z,-2.90
2022-12-11T22:40:23.902Z,-2.90
2022-12-11T22:42:51.823Z,-2.90
2022-12-11T22:45:21.137Z,-2.90
2022-12-11T22:47:49.273Z,-2.90
2022-12-11T22:50:17.987Z,-2.90
2022-12-11T22:52:45.919Z,-2.90
2022-12-11T22:55:14.244Z,-2.90
2022-12-11T22:57:42.455Z,-2.90
2022-12-11T23:00:14.249Z,-2.90
2022-12-11T23:02:43.962Z,-2.90
2022-12-11T23:05:13.279Z,-2.80
2022-12-11T23:07:41.445Z,-2.80
2022-12-11T23:10:10.958Z,-2.80
2022-12-11T23:12:38.887Z,-2.80
2022-12-11T23:15:07.947Z,-2.80
2022-12-11T23:17:36.010Z,-2.90
2022-12-11T23:20:06.785Z,-2.90
2022-12-11T23:22:34.983Z,-2.90
2022-12-11T23:25:02.983Z,-2.90
2022-12-11T23:27:31.096Z,-2.90
2022-12-11T23:29:59.111Z,-2.90
2022-12-11T23:32:28.762Z,-2.90
2022-12-11T23:34:56.720Z,-2.90
2022-12-11T23:37:26.114Z,-2.90
2022-12-11T23:39:54.055Z,-2.90
2022-12-11T23:42:21.959Z,-2.90
2022-12-11T23:44:50.013Z,-2.90
2022-12-11T23:47:17.913Z,-2.90
2022-12-11T23:49:45.827Z,-2.90
2022-12-11T23:52:13.750Z,-2.90
2022-12-11T23:54:43.295Z,-2.90
2022-12-11T23:57:11.203Z,-2.80
2022-12-11T23:59:39.268Z,-2.90
